Time;durP1;ratioP1;P1;durP2;ratioP2;P2;SDS_P1;SDS_P2;PMS_P1;PMS_P2;Temp;Humidity;BMP_temperature;BMP_pressure;BME280_temperature;BME280_humidity;BME280_pressure;Samples;Min_cycle;Max_cycle;Signal;HPM_P1;HPM_P2
2022/05/21 00:01:38;;;;;;;2.70;2.50;;;17.40;99.90;;;;;;6171639;28;20581;-55
2022/05/21 00:04:42;;;;;;;2.80;2.60;;;17.30;99.90;;;;;;6189664;28;20236;-55
2022/05/21 00:07:45;;;;;;;3.37;2.40;;;17.20;99.90;;;;;;6175157;28;20375;-55
2022/05/21 00:10:47;;;;;;;2.63;2.43;;;17.10;99.90;;;;;;6184823;28;20239;-55
2022/05/21 00:13:51;;;;;;;2.50;2.40;;;17.10;99.90;;;;;;6185038;28;20647;-56
2022/05/21 00:16:55;;;;;;;2.73;2.63;;;17.00;99.90;;;;;;6175523;28;20249;-55
2022/05/21 00:19:58;;;;;;;2.40;2.40;;;17.00;99.90;;;;;;6158728;28;20376;-55
2022/05/21 00:23:10;;;;;;;2.43;2.40;;;16.90;99.90;;;;;;6159830;28;20718;-55
2022/05/21 00:26:15;;;;;;;2.57;2.53;;;16.90;99.90;;;;;;6159985;28;20462;-55
2022/05/21 00:29:20;;;;;;;2.43;2.43;;;16.80;99.90;;;;;;6160218;28;20256;-55
2022/05/21 00:32:24;;;;;;;2.63;2.43;;;16.80;99.90;;;;;;6161396;28;20240;-55
2022/05/21 00:35:26;;;;;;;2.50;2.50;;;16.70;99.90;;;;;;6198445;28;20514;-52
2022/05/21 00:38:29;;;;;;;2.60;2.37;;;16.70;99.90;;;;;;6197742;28;20246;-55
2022/05/21 00:41:32;;;;;;;5.17;2.77;;;16.80;99.90;;;;;;6180460;28;20257;-55
2022/05/21 00:44:35;;;;;;;3.70;3.00;;;16.70;99.90;;;;;;6184332;28;20856;-54
2022/05/21 00:47:39;;;;;;;2.90;2.90;;;16.70;99.90;;;;;;6181776;28;20639;-55
2022/05/21 00:50:42;;;;;;;2.83;2.60;;;16.70;99.90;;;;;;6170100;28;20237;-53
2022/05/21 00:53:46;;;;;;;2.80;2.80;;;16.70;99.90;;;;;;6160092;28;20524;-55
2022/05/21 00:56:55;;;;;;;2.93;2.73;;;16.70;99.90;;;;;;6158569;28;20272;-54
2022/05/21 01:00:00;;;;;;;7.13;2.80;;;16.70;99.90;;;;;;6158723;28;20249;-55
2022/05/21 01:03:05;;;;;;;3.03;2.90;;;16.60;99.90;;;;;;6172600;28;20317;-55
2022/05/21 01:06:07;;;;;;;3.20;3.00;;;16.60;99.90;;;;;;6197509;28;20243;-55
2022/05/21 01:09:10;;;;;;;3.17;2.90;;;16.50;99.90;;;;;;6189073;28;20792;-55
2022/05/21 01:12:13;;;;;;;2.80;2.80;;;16.50;99.90;;;;;;6186265;28;20341;-55
2022/05/21 01:15:19;;;;;;;2.90;2.80;;;16.40;99.90;;;;;;6187420;28;20344;-53
2022/05/21 01:18:24;;;;;;;3.47;3.13;;;16.40;99.90;;;;;;6172545;28;20292;-53
2022/05/21 01:21:26;;;;;;;3.40;3.30;;;16.30;99.90;;;;;;6176993;28;20726;-54
2022/05/21 01:24:30;;;;;;;2.83;2.67;;;16.20;99.90;;;;;;6184473;28;20236;-54
2022/05/21 01:27:34;;;;;;;2.90;2.80;;;16.10;99.90;;;;;;6182826;28;20331;-55
2022/05/21 01:30:39;;;;;;;3.03;2.90;;;16.00;99.90;;;;;;6187099;28;20370;-55
2022/05/21 01:33:45;;;;;;;6.67;2.60;;;16.00;99.90;;;;;;6195749;28;20293;-55
2022/05/21 01:36:48;;;;;;;3.80;2.77;;;16.00;99.90;;;;;;6188990;28;20465;-55
2022/05/21 01:39:52;;;;;;;6.33;3.37;;;15.90;99.90;;;;;;6195802;28;20438;-54
2022/05/21 01:46:17;;;;;;;3.00;2.80;;;15.80;99.90;;;;;;6186277;28;20243;-55
2022/05/21 01:49:20;;;;;;;3.00;2.80;;;15.80;99.90;;;;;;6186670;28;20248;-54
2022/05/21 01:52:22;;;;;;;3.10;3.00;;;15.80;99.90;;;;;;6175421;28;20232;-55
2022/05/21 01:55:26;;;;;;;3.37;3.00;;;15.70;99.90;;;;;;6162940;28;20295;-55
2022/05/21 01:58:29;;;;;;;3.40;3.10;;;15.70;99.90;;;;;;6162053;28;20244;-55
2022/05/21 02:01:32;;;;;;;2.93;2.83;;;15.60;99.90;;;;;;6179838;28;20314;-53
2022/05/21 02:04:36;;;;;;;3.13;2.83;;;15.50;99.90;;;;;;6197005;28;20232;-54
2022/05/21 02:07:38;;;;;;;2.90;2.80;;;15.50;99.90;;;;;;6204761;28;20266;-55
2022/05/21 02:10:43;;;;;;;3.10;2.80;;;15.50;99.90;;;;;;6181719;28;20242;-57
2022/05/21 02:13:46;;;;;;;2.80;2.80;;;15.50;99.90;;;;;;6187443;28;20323;-55
2022/05/21 02:16:48;;;;;;;3.27;3.10;;;15.50;99.90;;;;;;6187889;28;20651;-55
2022/05/21 02:19:51;;;;;;;3.03;2.90;;;15.50;99.90;;;;;;6189909;28;20535;-55
2022/05/21 02:22:54;;;;;;;3.00;2.90;;;15.50;99.90;;;;;;6184199;28;20415;-55
2022/05/21 02:26:00;;;;;;;3.27;3.17;;;15.50;99.90;;;;;;6165504;28;20276;-54
2022/05/21 02:29:04;;;;;;;2.83;2.80;;;15.50;99.90;;;;;;6161803;28;20768;-54
2022/05/21 02:32:08;;;;;;;3.20;3.10;;;15.40;99.90;;;;;;6179045;28;20271;-55
2022/05/21 02:35:11;;;;;;;3.23;3.03;;;15.40;99.90;;;;;;6182711;28;20641;-54
2022/05/21 02:41:36;;;;;;;2.70;2.70;;;15.40;99.90;;;;;;6175147;28;20239;-53
2022/05/21 02:44:38;;;;;;;2.97;2.87;;;15.30;99.90;;;;;;6161998;28;20240;-56
2022/05/21 02:47:41;;;;;;;3.13;3.13;;;15.30;99.90;;;;;;6160309;28;20378;-55
2022/05/21 02:50:44;;;;;;;3.40;3.27;;;15.40;99.90;;;;;;6159260;28;20400;-55
2022/05/21 02:53:47;;;;;;;3.60;3.30;;;15.30;99.90;;;;;;6161486;28;20700;-54
2022/05/21 02:56:51;;;;;;;3.77;3.40;;;15.30;99.90;;;;;;6160057;28;20603;-55
2022/05/21 02:59:54;;;;;;;3.20;3.00;;;15.30;99.90;;;;;;6161336;28;20284;-56
2022/05/21 03:02:58;;;;;;;3.83;3.30;;;15.30;99.90;;;;;;6171430;28;20304;-54
2022/05/21 03:06:00;;;;;;;3.37;3.10;;;15.40;99.90;;;;;;6181796;28;20327;-54
2022/05/21 03:12:26;;;;;;;3.80;3.57;;;15.20;97.60;;;;;;6185264;28;20381;-57
2022/05/21 03:15:31;;;;;;;3.27;3.17;;;15.20;96.70;;;;;;6184112;28;20566;-55
2022/05/21 03:18:33;;;;;;;3.30;3.00;;;15.20;96.70;;;;;;6184313;28;20250;-54
2022/05/21 03:21:36;;;;;;;3.30;3.10;;;15.10;96.40;;;;;;6158783;28;23077;-55
2022/05/21 03:24:39;;;;;;;3.60;3.40;;;15.10;92.10;;;;;;6161484;28;20721;-55
2022/05/21 03:27:43;;;;;;;3.33;3.23;;;15.00;93.70;;;;;;6160226;28;20327;-54
2022/05/21 03:30:47;;;;;;;4.10;3.27;;;15.00;93.40;;;;;;6160028;28;20714;-55
2022/05/21 03:33:49;;;;;;;3.43;3.33;;;14.90;92.70;;;;;;6169444;28;20232;-55
2022/05/21 03:36:52;;;;;;;3.57;3.37;;;14.90;91.90;;;;;;6182448;28;20378;-54
2022/05/21 03:39:55;;;;;;;3.53;3.27;;;14.90;88.50;;;;;;6190620;28;20327;-55
2022/05/21 03:42:59;;;;;;;2.87;2.77;;;14.80;88.10;;;;;;6183368;28;20325;-55
2022/05/21 03:46:04;;;;;;;3.40;3.03;;;14.80;89.80;;;;;;6185266;28;20240;-55
2022/05/21 03:49:07;;;;;;;6.63;3.37;;;14.70;90.30;;;;;;6177114;28;20228;-56
2022/05/21 03:52:10;;;;;;;3.50;3.20;;;14.60;91.40;;;;;;6184149;28;20264;-55
2022/05/21 03:55:13;;;;;;;3.60;3.43;;;14.60;88.70;;;;;;6185817;28;20702;-54
2022/05/21 03:58:17;;;;;;;3.10;2.90;;;14.60;93.50;;;;;;6182987;28;20874;-55
2022/05/21 04:01:20;;;;;;;3.00;2.90;;;14.50;94.40;;;;;;6184278;28;20283;-56
2022/05/21 04:04:22;;;;;;;3.00;2.87;;;14.50;93.40;;;;;;6194611;28;20718;-55
2022/05/21 04:07:25;;;;;;;3.23;3.00;;;14.40;94.00;;;;;;6191810;28;20247;-54
2022/05/21 04:10:28;;;;;;;3.13;3.00;;;14.50;94.90;;;;;;6185368;28;20791;-55
2022/05/21 04:13:32;;;;;;;3.93;3.20;;;14.40;90.30;;;;;;6173801;28;20232;-55
2022/05/21 04:16:35;;;;;;;2.90;2.80;;;14.40;91.00;;;;;;6179306;28;20244;-55
2022/05/21 04:19:39;;;;;;;5.03;2.93;;;14.30;91.80;;;;;;6182825;28;20379;-54
2022/05/21 04:22:42;;;;;;;3.77;3.00;;;14.20;95.30;;;;;;6177122;28;20436;-54
2022/05/21 04:25:46;;;;;;;3.07;2.90;;;14.20;90.00;;;;;;6160157;28;20548;-56
2022/05/21 04:28:53;;;;;;;2.83;2.73;;;14.20;84.50;;;;;;6160350;28;20252;-54
2022/05/21 04:31:55;;;;;;;2.80;2.70;;;14.10;83.50;;;;;;6159963;28;20698;-55
2022/05/21 04:34:58;;;;;;;2.73;2.63;;;14.10;82.30;;;;;;6196536;28;20246;-54
2022/05/21 04:38:01;;;;;;;2.70;2.60;;;14.10;71.50;;;;;;6182784;28;20322;-55
2022/05/21 04:41:04;;;;;;;2.70;2.60;;;14.20;45.50;;;;;;6176879;28;20364;-55
2022/05/21 04:44:09;;;;;;;2.97;2.83;;;14.20;45.10;;;;;;6160208;28;20320;-54
2022/05/21 04:47:11;;;;;;;2.50;2.50;;;14.20;24.20;;;;;;6162202;28;20695;-57
2022/05/21 04:50:14;;;;;;;2.80;2.60;;;14.20;29.00;;;;;;6163218;28;20359;-56
2022/05/21 04:53:17;;;;;;;2.80;2.57;;;14.30;49.40;;;;;;6165273;28;20635;-55
2022/05/21 04:56:20;;;;;;;3.17;2.90;;;14.40;35.20;;;;;;6164233;28;20268;-54
2022/05/21 04:59:41;;;;;;;3.10;3.00;;;14.40;28.90;;;;;;6164271;28;20244;-56
2022/05/21 05:02:44;;;;;;;3.10;2.90;;;14.60;22.90;;;;;;6171081;28;20302;-54
2022/05/21 05:05:47;;;;;;;3.30;3.10;;;14.60;16.40;;;;;;6187453;28;20377;-55
2022/05/21 05:08:50;;;;;;;3.23;3.03;;;14.50;16.30;;;;;;6187254;28;20807;-54
2022/05/21 05:11:53;;;;;;;4.00;3.20;;;14.50;30.00;;;;;;6188148;28;20243;-54
2022/05/21 05:14:57;;;;;;;3.50;3.33;;;14.50;28.60;;;;;;6186324;28;20240;-55
2022/05/21 05:18:00;;;;;;;3.03;2.93;;;14.50;27.70;;;;;;6162643;28;20324;-55
2022/05/21 05:21:03;;;;;;;3.27;2.97;;;14.60;24.10;;;;;;6161551;28;20236;-56
2022/05/21 05:24:05;;;;;;;3.40;3.20;;;14.60;16.40;;;;;;6163763;28;20371;-55
2022/05/21 05:27:08;;;;;;;3.33;3.13;;;14.60;16.40;;;;;;6163090;28;20255;-55
2022/05/21 05:30:13;;;;;;;3.37;3.17;;;14.60;16.40;;;;;;6162924;28;20236;-55
2022/05/21 05:33:17;;;;;;;3.87;3.57;;;14.50;16.30;;;;;;6178180;28;20453;-55
2022/05/21 05:36:19;;;;;;;4.57;3.10;;;14.50;20.40;;;;;;6193274;28;20670;-55
2022/05/21 05:39:22;;;;;;;4.00;3.13;;;14.50;16.20;;;;;;6195592;28;20242;-55
2022/05/21 05:42:25;;;;;;;3.30;3.20;;;14.70;8.40;;;;;;6186870;28;20338;-54
2022/05/21 05:45:29;;;;;;;5.30;3.10;;;15.00;1.00;;;;;;6167013;28;20247;-55
2022/05/21 05:48:32;;;;;;;3.20;3.10;;;15.20;1.00;;;;;;6162939;28;20401;-54
2022/05/21 05:51:35;;;;;;;3.47;3.13;;;15.50;1.00;;;;;;6160361;28;20597;-55
2022/05/21 05:54:38;;;;;;;3.43;3.17;;;15.40;1.00;;;;;;6163335;28;20260;-54
2022/05/21 05:57:41;;;;;;;3.47;3.27;;;15.40;1.00;;;;;;6162347;28;20323;-54
2022/05/21 06:00:44;;;;;;;3.40;3.10;;;15.50;1.00;;;;;;6161481;28;20295;-58
2022/05/21 06:03:48;;;;;;;3.20;2.90;;;15.50;1.00;;;;;;6183976;28;20793;-55
2022/05/21 06:06:51;;;;;;;4.97;2.80;;;15.60;1.00;;;;;;6204306;28;20790;-54
2022/05/21 06:09:55;;;;;;;3.10;2.90;;;15.80;1.00;;;;;;6190180;28;20794;-55
2022/05/21 06:12:58;;;;;;;6.07;3.40;;;15.90;1.00;;;;;;6186694;28;20383;-56
2022/05/21 06:16:02;;;;;;;2.87;2.67;;;15.90;1.00;;;;;;6186643;28;20314;-55
2022/05/21 06:19:06;;;;;;;3.70;2.87;;;16.10;1.00;;;;;;6180811;28;20667;-54
2022/05/21 06:22:09;;;;;;;2.83;2.73;;;16.00;1.00;;;;;;6178283;28;20468;-54
2022/05/21 06:25:17;;;;;;;2.90;2.77;;;15.90;1.00;;;;;;6186743;28;20280;-55
2022/05/21 06:28:20;;;;;;;3.33;2.67;;;16.10;1.00;;;;;;6185401;28;20729;-54
2022/05/21 06:31:24;;;;;;;4.03;2.83;;;16.10;1.00;;;;;;6166417;28;20371;-55
2022/05/21 06:34:27;;;;;;;3.63;2.87;;;16.10;1.00;;;;;;6188701;28;20303;-54
2022/05/21 06:37:29;;;;;;;3.10;2.90;;;16.00;1.00;;;;;;6203460;28;20270;-55
2022/05/21 06:40:32;;;;;;;5.13;3.10;;;15.90;1.00;;;;;;6185803;28;20232;-56
2022/05/21 06:43:35;;;;;;;4.00;3.67;;;15.80;1.00;;;;;;6185808;28;20239;-56
2022/05/21 06:46:39;;;;;;;8.00;3.07;;;15.60;1.00;;;;;;6184587;28;20937;-55
2022/05/21 06:49:42;;;;;;;6.93;3.20;;;15.50;1.00;;;;;;6170140;28;20821;-55
2022/05/21 06:52:44;;;;;;;3.40;3.23;;;15.40;1.00;;;;;;6161917;28;20247;-55
2022/05/21 06:55:48;;;;;;;3.57;3.27;;;15.30;1.00;;;;;;6197986;28;20235;-54
2022/05/21 06:58:51;;;;;;;3.77;3.43;;;15.30;1.00;;;;;;6187177;28;20391;-56
2022/05/21 07:01:55;;;;;;;3.57;3.00;;;15.30;1.00;;;;;;6185055;28;20464;-55
2022/05/21 07:08:22;;;;;;;3.73;2.77;;;15.40;1.00;;;;;;6188096;28;20756;-54
2022/05/21 07:11:24;;;;;;;3.10;2.90;;;15.50;1.00;;;;;;6181859;28;20236;-55
2022/05/21 07:14:27;;;;;;;5.20;2.87;;;15.60;1.00;;;;;;6179836;28;20330;-54
2022/05/21 07:17:31;;;;;;;4.80;2.67;;;15.60;1.00;;;;;;6187623;28;20324;-54
2022/05/21 07:20:34;;;;;;;2.90;2.53;;;15.80;1.00;;;;;;6191851;28;20296;-53
2022/05/21 07:23:37;;;;;;;2.23;2.20;;;15.90;1.00;;;;;;6188413;28;20368;-54
2022/05/21 07:26:42;;;;;;;2.63;2.53;;;15.90;1.00;;;;;;6187508;28;20498;-54
2022/05/21 07:29:45;;;;;;;2.53;2.43;;;15.80;1.00;;;;;;6186879;28;20243;-55
2022/05/21 07:32:50;;;;;;;2.53;2.40;;;15.80;1.00;;;;;;6186977;28;20727;-55
2022/05/21 07:35:53;;;;;;;3.40;2.40;;;15.80;1.00;;;;;;6184594;28;20262;-55
2022/05/21 07:38:56;;;;;;;2.70;2.50;;;15.90;1.00;;;;;;6187085;28;20240;-56
2022/05/21 07:41:58;;;;;;;2.27;2.27;;;16.00;1.00;;;;;;6180140;28;20299;-56
2022/05/21 07:45:01;;;;;;;2.63;2.47;;;16.00;1.00;;;;;;6179450;28;20806;-55
2022/05/21 07:48:06;;;;;;;2.97;2.77;;;15.90;1.00;;;;;;6181446;28;20236;-54
2022/05/21 07:51:09;;;;;;;2.77;2.63;;;15.80;1.00;;;;;;6180030;28;20239;-56
2022/05/21 07:54:12;;;;;;;3.43;3.13;;;15.80;1.00;;;;;;6179284;28;20367;-54
2022/05/21 07:57:15;;;;;;;3.30;3.00;;;15.80;1.00;;;;;;6178225;28;20237;-55
2022/05/21 08:00:18;;;;;;;3.10;2.77;;;16.00;1.00;;;;;;6181725;28;20305;-54
2022/05/21 08:03:23;;;;;;;3.77;2.70;;;16.10;1.00;;;;;;6185867;28;20936;-56
2022/05/21 08:06:26;;;;;;;5.10;2.70;;;16.20;1.00;;;;;;6190689;28;20827;-53
2022/05/21 08:09:28;;;;;;;3.53;3.10;;;16.40;1.00;;;;;;6192365;28;20242;-54
2022/05/21 08:12:31;;;;;;;3.43;3.17;;;16.40;1.00;;;;;;6187748;28;20235;-55
2022/05/21 08:15:35;;;;;;;5.80;3.17;;;16.50;1.00;;;;;;6184280;28;20371;-56
2022/05/21 08:18:39;;;;;;;3.53;2.70;;;16.60;1.00;;;;;;6181908;28;20246;-53
2022/05/21 08:21:42;;;;;;;4.20;2.90;;;16.70;1.00;;;;;;6182460;28;20383;-55
2022/05/21 08:28:05;;;;;;;3.33;3.00;;;17.00;1.00;;;;;;6174848;28;20848;-54
2022/05/21 08:31:08;;;;;;;2.97;2.77;;;17.00;1.00;;;;;;6176914;28;20830;-56
2022/05/21 08:34:12;;;;;;;2.70;2.60;;;17.20;1.00;;;;;;6169767;28;20723;-53
2022/05/21 08:37:15;;;;;;;2.90;2.80;;;17.20;1.00;;;;;;6170129;28;20270;-53
2022/05/21 08:40:17;;;;;;;2.90;2.80;;;17.30;1.00;;;;;;6181802;28;20375;-54
2022/05/21 08:43:23;;;;;;;2.80;2.70;;;17.30;1.00;;;;;;6185206;28;20279;-54
2022/05/21 08:46:38;;;;;;;3.10;2.80;;;17.50;1.00;;;;;;6184493;28;20247;-54
2022/05/21 08:49:51;;;;;;;3.30;3.10;;;17.40;1.00;;;;;;6187494;28;20633;-54
2022/05/21 08:53:02;;;;;;;3.80;2.67;;;17.50;1.00;;;;;;6187045;28;20735;-55
2022/05/21 08:56:05;;;;;;;3.37;3.17;;;17.50;1.00;;;;;;6181347;28;20285;-54
2022/05/21 08:59:09;;;;;;;3.07;2.80;;;17.20;1.00;;;;;;6186806;28;20250;-56
2022/05/21 09:02:16;;;;;;;3.50;3.20;;;16.90;1.00;;;;;;6182643;28;20393;-54
2022/05/21 09:05:22;;;;;;;4.33;3.50;;;16.70;1.00;;;;;;6176021;28;20765;-53
2022/05/21 09:08:30;;;;;;;3.43;3.23;;;16.30;1.00;;;;;;6174810;28;20240;-54
2022/05/21 09:11:37;;;;;;;3.53;3.33;;;16.10;6.10;;;;;;6185746;28;20494;-54
2022/05/21 09:14:43;;;;;;;3.33;3.20;;;16.20;10.40;;;;;;6186909;28;20233;-55
2022/05/21 09:17:45;;;;;;;3.50;3.27;;;16.30;1.80;;;;;;6186222;28;20243;-55
2022/05/21 09:20:57;;;;;;;4.20;3.83;;;16.40;6.10;;;;;;6180030;28;20243;-53
2022/05/21 09:24:01;;;;;;;5.17;3.67;;;16.80;1.00;;;;;;6181672;28;20338;-55
2022/05/21 09:27:05;;;;;;;3.70;3.50;;;16.90;1.00;;;;;;6186592;28;20659;-53
2022/05/21 09:30:21;;;;;;;4.00;3.70;;;17.00;1.00;;;;;;6190087;28;20814;-54
2022/05/21 09:33:26;;;;;;;4.10;3.83;;;16.70;1.00;;;;;;6174935;28;20340;-56
2022/05/21 09:36:35;;;;;;;4.20;4.00;;;16.50;1.00;;;;;;6170739;28;20555;-55
2022/05/21 09:39:39;;;;;;;4.03;3.90;;;16.20;1.00;;;;;;6182638;28;20255;-55
2022/05/21 09:46:26;;;;;;;3.97;3.83;;;15.90;1.00;;;;;;6106529;29;20410;-54
2022/05/21 09:49:30;;;;;;;5.00;4.70;;;16.00;1.00;;;;;;6105491;29;20494;-55
2022/05/21 09:52:35;;;;;;;4.60;4.30;;;16.10;1.00;;;;;;6175169;28;20259;-53
2022/05/21 09:55:38;;;;;;;5.63;5.23;;;16.20;1.00;;;;;;6181171;28;20240;-54
2022/05/21 09:58:42;;;;;;;8.17;5.03;;;16.20;1.00;;;;;;6186391;28;20505;-54
2022/05/21 10:01:47;;;;;;;5.20;4.77;;;16.30;1.00;;;;;;6170080;28;20271;-55
2022/05/21 10:04:54;;;;;;;5.63;5.23;;;16.40;1.00;;;;;;6186001;28;20844;-55
2022/05/21 10:11:28;;;;;;;5.67;5.23;;;16.60;1.00;;;;;;6175300;28;20418;-54
2022/05/21 10:14:35;;;;;;;6.60;6.10;;;16.70;1.00;;;;;;6183427;28;20820;-55
2022/05/21 10:17:41;;;;;;;6.73;6.20;;;16.80;1.00;;;;;;6174078;28;20240;-55
2022/05/21 10:20:47;;;;;;;7.67;7.27;;;17.00;1.00;;;;;;6177588;28;20228;-54
2022/05/21 10:23:55;;;;;;;8.37;7.67;;;17.20;1.00;;;;;;6181481;28;20322;-54
2022/05/21 10:27:08;;;;;;;8.57;7.90;;;17.00;1.00;;;;;;6171781;28;20857;-54
2022/05/21 10:30:16;;;;;;;8.70;7.97;;;17.00;1.00;;;;;;6181600;28;20259;-55
2022/05/21 10:33:33;;;;;;;7.93;7.23;;;17.10;1.00;;;;;;6181198;28;20235;-54
2022/05/21 10:36:50;;;;;;;8.20;7.53;;;17.20;1.00;;;;;;6173631;28;20395;-56
2022/05/21 10:40:08;;;;;;;7.83;7.03;;;17.20;1.00;;;;;;6148627;28;1008768;-53
2022/05/21 10:43:27;;;;;;;8.17;7.57;;;17.30;1.00;;;;;;6190192;28;20236;-55
2022/05/21 10:46:46;;;;;;;8.57;7.77;;;17.40;1.00;;;;;;6179129;28;20236;-55
2022/05/21 10:50:18;;;;;;;7.27;6.67;;;17.50;1.00;;;;;;6194352;28;20346;-56
2022/05/21 10:53:46;;;;;;;7.17;6.60;;;17.70;1.00;;;;;;6190148;28;20318;-56
2022/05/21 10:57:01;;;;;;;7.60;7.00;;;17.90;1.00;;;;;;6185328;28;20598;-58
2022/05/21 11:00:08;;;;;;;6.83;6.30;;;17.80;1.00;;;;;;6175051;28;20820;-55
2022/05/21 11:03:27;;;;;;;7.40;6.90;;;17.80;1.00;;;;;;6182555;28;20314;-54
2022/05/21 11:06:48;;;;;;;5.70;5.33;;;17.60;1.00;;;;;;6182258;28;20394;-55
2022/05/21 11:10:02;;;;;;;5.77;5.37;;;17.40;1.00;;;;;;6176576;28;20228;-55
2022/05/21 11:13:11;;;;;;;6.20;5.67;;;17.30;1.00;;;;;;6186274;28;20803;-56
2022/05/21 11:16:18;;;;;;;12.13;5.80;;;17.50;1.00;;;;;;6181510;28;20746;-55
2022/05/21 11:19:24;;;;;;;6.60;5.37;;;17.50;1.00;;;;;;6180529;28;20306;-55
2022/05/21 11:22:36;;;;;;;5.70;5.33;;;17.50;1.00;;;;;;6181102;28;20235;-56
2022/05/21 11:25:44;;;;;;;5.63;5.33;;;17.90;1.00;;;;;;6185339;28;20240;-54
2022/05/21 11:28:52;;;;;;;5.47;5.00;;;18.00;1.00;;;;;;6188781;28;20304;-55
2022/05/21 11:38:58;;;;;;;5.47;5.07;;;17.80;1.00;;;;;;6119244;28;20393;-54
2022/05/21 11:42:16;;;;;;;5.40;5.10;;;18.00;1.00;;;;;;6185984;28;20243;-55
2022/05/21 11:45:25;;;;;;;8.73;5.87;;;18.10;1.00;;;;;;6186938;28;20721;-56
2022/05/21 11:48:30;;;;;;;6.27;5.67;;;18.40;1.00;;;;;;6181174;28;20709;-54
2022/05/21 11:51:34;;;;;;;6.97;5.70;;;18.50;1.00;;;;;;6185523;28;20323;-54
2022/05/21 11:55:02;;;;;;;5.53;5.23;;;18.70;1.00;;;;;;6179800;28;20335;-56
2022/05/21 11:58:05;;;;;;;6.47;5.40;;;18.70;1.00;;;;;;6192767;28;21050;-54
2022/05/21 12:01:09;;;;;;;6.20;5.50;;;18.50;1.00;;;;;;6178698;28;20239;-55
2022/05/21 12:04:25;;;;;;;6.07;5.50;;;18.20;1.00;;;;;;6183524;28;20385;-56
2022/05/21 12:08:10;;;;;;;6.20;5.67;;;18.00;1.00;;;;;;6183990;28;20736;-53
2022/05/21 12:11:44;;;;;;;6.07;5.60;;;17.80;1.00;;;;;;6062982;28;20537;-54
2022/05/21 12:14:51;;;;;;;6.23;5.60;;;17.50;1.00;;;;;;6182619;28;20227;-54
2022/05/21 12:18:04;;;;;;;5.13;4.80;;;17.50;1.00;;;;;;6186012;28;20327;-54
2022/05/21 12:21:09;;;;;;;6.00;5.43;;;17.50;1.00;;;;;;6181144;28;20382;-56
2022/05/21 12:24:35;;;;;;;6.03;5.63;;;17.50;1.00;;;;;;6183680;28;20293;-56
2022/05/21 12:27:50;;;;;;;5.83;5.20;;;17.70;1.00;;;;;;6182369;28;20240;-54
2022/05/21 12:31:01;;;;;;;5.37;5.07;;;17.70;1.00;;;;;;6176069;28;20460;-54
2022/05/21 12:34:27;;;;;;;7.50;5.03;;;17.80;1.00;;;;;;6188255;28;20236;-54
2022/05/21 12:37:36;;;;;;;5.83;5.43;;;17.90;1.00;;;;;;6179006;28;20771;-55
2022/05/21 12:40:46;;;;;;;5.97;5.33;;;17.80;1.00;;;;;;6177544;28;20327;-55
2022/05/21 12:43:51;;;;;;;4.93;4.73;;;17.80;1.00;;;;;;6180339;28;20233;-56
2022/05/21 12:46:57;;;;;;;7.27;5.10;;;17.90;1.00;;;;;;6188805;28;20318;-54
2022/05/21 12:50:12;;;;;;;5.50;5.13;;;17.90;1.00;;;;;;6180803;28;20395;-55
2022/05/21 12:53:19;;;;;;;8.63;5.60;;;18.10;1.00;;;;;;6192984;28;20608;-55
2022/05/21 12:56:27;;;;;;;4.80;4.47;;;18.30;1.00;;;;;;6179834;28;20289;-56
2022/05/21 12:59:30;;;;;;;4.90;4.43;;;18.70;1.00;;;;;;6181614;28;20797;-57
2022/05/21 13:02:41;;;;;;;5.30;4.03;;;19.00;1.00;;;;;;6176598;28;21028;-55
2022/05/21 13:05:52;;;;;;;4.47;4.27;;;19.30;1.00;;;;;;6183975;28;20725;-54
2022/05/21 13:08:55;;;;;;;4.73;3.93;;;19.40;1.00;;;;;;6177877;28;20279;-54
2022/05/21 13:11:58;;;;;;;4.43;3.50;;;19.20;1.00;;;;;;6183624;28;20336;-56
2022/05/21 13:15:00;;;;;;;4.17;3.40;;;19.30;1.00;;;;;;6196855;28;20231;-56
2022/05/21 13:18:17;;;;;;;4.50;4.10;;;19.40;1.00;;;;;;6188400;28;20239;-56
2022/05/21 13:21:31;;;;;;;4.30;3.80;;;19.40;1.00;;;;;;6182418;28;20232;-54
2022/05/21 13:24:41;;;;;;;6.30;4.40;;;19.60;1.00;;;;;;6181071;28;20324;-54
2022/05/21 13:27:47;;;;;;;4.30;3.73;;;19.60;1.00;;;;;;6192703;28;20385;-55
2022/05/21 13:30:51;;;;;;;4.43;4.03;;;19.50;1.00;;;;;;6182475;28;20744;-55
2022/05/21 13:33:54;;;;;;;7.73;3.47;;;19.20;1.00;;;;;;6185226;28;20482;-55
2022/05/21 13:37:01;;;;;;;4.43;3.23;;;19.40;1.00;;;;;;6186213;28;21029;-55
2022/05/21 13:40:07;;;;;;;3.23;2.73;;;19.60;1.00;;;;;;6191432;28;20228;-56
2022/05/21 13:43:12;;;;;;;2.43;2.30;;;19.60;1.00;;;;;;6185651;28;20233;-55
2022/05/21 13:46:23;;;;;;;2.47;2.30;;;19.50;1.00;;;;;;6190382;28;20416;-56
2022/05/21 13:49:31;;;;;;;2.30;2.17;;;19.50;1.00;;;;;;6182959;28;20243;-56
2022/05/21 13:52:35;;;;;;;2.73;2.50;;;19.50;1.00;;;;;;6175661;28;20235;-56
2022/05/21 13:55:53;;;;;;;2.90;2.63;;;19.40;1.00;;;;;;6192708;28;20374;-55
2022/05/21 13:59:16;;;;;;;3.13;2.73;;;19.20;1.00;;;;;;6181153;28;20812;-56
2022/05/21 14:02:28;;;;;;;2.07;2.00;;;19.30;1.00;;;;;;6181516;28;20236;-55
2022/05/21 14:05:33;;;;;;;4.20;2.93;;;19.50;1.00;;;;;;6187314;28;20258;-55
2022/05/21 14:08:38;;;;;;;3.40;2.90;;;19.70;1.00;;;;;;6186134;28;20347;-54
2022/05/21 14:11:51;;;;;;;2.67;2.47;;;19.70;1.00;;;;;;6178917;28;20646;-56
2022/05/21 14:14:54;;;;;;;3.80;2.70;;;19.60;1.00;;;;;;6191529;28;20260;-55
2022/05/21 14:17:59;;;;;;;3.60;2.57;;;19.50;1.00;;;;;;6193428;28;20247;-56
2022/05/21 14:21:06;;;;;;;3.03;2.87;;;19.30;1.00;;;;;;6176883;28;20325;-55
2022/05/21 14:24:15;;;;;;;3.00;2.80;;;19.00;1.00;;;;;;6187268;28;20808;-56
2022/05/21 14:27:26;;;;;;;2.70;2.50;;;18.80;1.00;;;;;;6185797;28;20387;-57
2022/05/21 14:30:32;;;;;;;2.73;2.57;;;18.60;1.00;;;;;;6180364;28;20821;-55
2022/05/21 14:33:51;;;;;;;2.20;1.97;;;18.50;1.00;;;;;;6193166;28;20268;-53
2022/05/21 14:36:54;;;;;;;1.77;1.77;;;18.00;1.00;;;;;;6185167;28;20602;-55
2022/05/21 14:40:04;;;;;;;1.77;1.67;;;17.70;1.00;;;;;;6184228;28;20544;-53
2022/05/21 14:43:09;;;;;;;2.27;2.10;;;17.40;1.00;;;;;;6185575;28;20235;-54
2022/05/21 14:49:30;;;;;;;2.00;1.87;;;17.00;1.00;;;;;;6191118;28;20263;-54
2022/05/21 14:52:49;;;;;;;2.20;2.10;;;17.10;1.00;;;;;;6185263;28;20302;-55
2022/05/21 14:55:54;;;;;;;3.10;2.33;;;17.20;1.00;;;;;;6184738;28;20232;-54
2022/05/21 14:58:58;;;;;;;3.77;2.40;;;17.50;1.00;;;;;;6186240;28;20719;-52
2022/05/21 15:02:01;;;;;;;4.57;2.43;;;17.70;1.00;;;;;;6182717;28;20604;-52
2022/05/21 15:05:05;;;;;;;2.90;2.10;;;17.70;1.00;;;;;;6179302;28;20331;-53
2022/05/21 15:08:12;;;;;;;3.17;2.43;;;17.80;1.00;;;;;;6177919;28;20314;-51
2022/05/21 15:11:16;;;;;;;3.60;2.10;;;17.90;1.00;;;;;;6191916;28;20290;-53
2022/05/21 15:14:18;;;;;;;2.60;2.40;;;18.20;1.00;;;;;;6193293;28;20279;-50
2022/05/21 15:17:21;;;;;;;3.47;2.40;;;18.60;1.00;;;;;;6193591;28;20247;-53
2022/05/21 15:20:24;;;;;;;3.53;2.50;;;18.90;1.00;;;;;;6182016;28;20236;-52
2022/05/21 15:23:27;;;;;;;4.43;3.53;;;18.80;1.00;;;;;;6184012;28;20310;-53
2022/05/21 15:26:31;;;;;;;2.60;2.50;;;18.90;1.00;;;;;;6189277;28;20330;-53
2022/05/21 15:29:35;;;;;;;6.33;2.60;;;18.80;1.00;;;;;;6182075;28;20319;-53
2022/05/21 15:32:37;;;;;;;3.13;2.27;;;18.80;1.00;;;;;;6183154;28;20346;-51
2022/05/21 15:35:40;;;;;;;4.27;2.27;;;18.90;1.00;;;;;;6188446;28;20239;-51
2022/05/21 15:38:43;;;;;;;5.47;2.60;;;18.90;1.00;;;;;;6183698;28;20634;-51
2022/05/21 15:41:47;;;;;;;2.50;2.30;;;19.10;1.00;;;;;;6182208;28;20722;-52
2022/05/21 15:44:52;;;;;;;2.33;2.13;;;19.20;1.00;;;;;;6193848;28;20259;-57
2022/05/21 15:47:54;;;;;;;5.23;2.60;;;19.20;1.00;;;;;;6182467;28;20235;-53
2022/05/21 15:50:57;;;;;;;2.37;2.03;;;19.20;1.00;;;;;;6183288;28;20284;-51
2022/05/21 15:54:00;;;;;;;4.57;2.40;;;19.20;1.00;;;;;;6182142;28;20267;-51
2022/05/21 15:57:04;;;;;;;5.47;2.57;;;19.30;1.00;;;;;;6183344;28;20761;-51
2022/05/21 16:00:09;;;;;;;3.50;2.50;;;19.30;1.00;;;;;;6182412;28;20236;-51
2022/05/21 16:03:11;;;;;;;2.40;2.20;;;19.50;1.00;;;;;;6183934;28;20447;-49
2022/05/21 16:06:14;;;;;;;2.70;2.43;;;19.70;1.00;;;;;;6185660;28;20749;-51
2022/05/21 16:09:17;;;;;;;3.03;2.50;;;19.70;1.00;;;;;;6187980;28;20254;-52
2022/05/21 16:12:24;;;;;;;2.53;2.33;;;19.50;1.00;;;;;;6193586;28;20240;-51
2022/05/21 16:15:29;;;;;;;2.30;2.10;;;19.50;1.00;;;;;;6189345;28;20239;-51
2022/05/21 16:18:31;;;;;;;2.10;2.00;;;19.40;1.00;;;;;;6186198;28;20326;-51
2022/05/21 16:21:36;;;;;;;2.47;2.20;;;19.60;1.00;;;;;;6182691;28;20306;-51
2022/05/21 16:24:39;;;;;;;4.93;2.30;;;19.70;1.00;;;;;;6191071;28;20246;-52
2022/05/21 16:27:43;;;;;;;2.73;2.07;;;19.70;1.00;;;;;;6181339;28;20247;-51
2022/05/21 16:30:46;;;;;;;2.50;2.30;;;19.60;1.00;;;;;;6183045;28;20282;-52
2022/05/21 16:33:49;;;;;;;2.70;2.07;;;19.50;1.00;;;;;;6192806;28;20755;-51
2022/05/21 16:36:51;;;;;;;2.33;2.03;;;19.40;1.00;;;;;;6182750;28;20290;-51
2022/05/21 16:39:55;;;;;;;2.83;2.63;;;19.30;1.00;;;;;;6179272;28;20283;-51
2022/05/21 16:42:59;;;;;;;3.93;2.17;;;19.10;1.00;;;;;;6178597;28;20481;-51
2022/05/21 16:46:01;;;;;;;4.87;2.60;;;19.10;1.00;;;;;;6187997;28;20318;-51
2022/05/21 16:49:08;;;;;;;2.73;2.63;;;19.00;1.00;;;;;;6188624;28;20243;-51